首页
METAR-TAF:

METAR-TAF

机场 :

坎贝尔河, 不列颠哥伦比亚, 加拿大

纬度: 49-57N, 经度: 125-16W, 海拔: 106米

当前天气观测

该预报发布于1小时和9分钟前的17:00 UTC
风速10节,风向北转西北,有时为17节阵风
温度 17°C
湿度 59%
气压 1023 hPa
能見度: 48.3公里
少量云层高于3000英尺
少量云层高于5000英尺
散云层高于9000英尺
多云层高于26000英尺

METAR: CYBL 081700Z 33010G17KT 30SM FEW030 FEW050 SCT090 BKN260 17/09 A3020 RMK CF1SC2AC1CI4 CF TR SLP229 DENSITY ALT 400FT

时间: 11:09 (18:09 UTC)

预报

该预报发布于3小时和31分钟前的14:38 UTC
预报有效从08日的 15点(UTC)到 09日的 03点(UTC)
风速6节,风向西转西北
能見度: 10公里
少量云层高于800英尺
少量云层高于2000英尺
多云层高于5000英尺
从 08日的 1800点(UTC)
风速10节,风向西转西北
能見度: 10公里
散云层高于5000英尺

TAF: CYBL 081438Z 0815/0903 30006KT P6SM FEW008 FEW020 BKN050 FM081800 30010KT P6SM SCT050 RMK NXT FCST BY 081900Z

超过4000个机场的气象观测和天气预报(METAR&TAF报告)。

可查询的气象台以黄色和红色小点在地图上表示。

将鼠标移到小点上方,可查看气象台名称。

然后点击查看天气观测和预报。

如需切换地图:点击带黑十字的绿色按钮放大地图;点击带横线的绿色按钮缩小地图;或者点击绿色箭头查看邻近地区的地图。


METAR-TAF: